»·PEaware :: N292MC KAVQ-KBXK

N292MC :: KAVQ-KBXK

FLIGHT INFORMATION

Flight Status: Arrived
Operator: Privately registered:
United States
More flights under this callsign
Pilot: Maurice C. (12314)
Aircraft: Unknown
(KODI)
More flights by this aircraft type
Origin: KAVQ Marana Northwest Regl
United States
Destination: KBXK Buckeye Mun
United States
More flights between these airports :: More routes between these airports
Route: TFD GBN
File this flight plan on PilotEdge
Remarks: ALPHABET CHALLENGE
Altitude:
(Current/Filed)
6,500ft
Speed:
(Current/Filed)
180kts
Departed: 23-Sep-20 02:39 PM
Arrived: 23-Sep-20 03:21 PM
Distance/Time
Traveled:
96nm/0:42
Distance/Time
To Go:
Arrived

Flight Plot

Page will automatically refresh every two minutes.

Flight plan parsing failed; only flown route is shown


Map Options




Map Legend


Flown Route
Filed Route
Departure Airport
Arrival Airport
Navaid (VOR, NDB)
Fix

Horizontal Profiles

Position Reports

Time Latitude Longitude Heading Altitude Ground
Speed
23-Sep-20 14:22 32.405688 -111.218681 133 2027ft 0kts
23-Sep-20 14:23 32.405688 -111.218681 133 2027ft 0kts
23-Sep-20 14:24 32.405688 -111.218681 133 2027ft 0kts
23-Sep-20 14:25 32.405688 -111.218681 133 2027ft 0kts
23-Sep-20 14:26 32.405684 -111.218676 133 2027ft 0kts
23-Sep-20 14:27 32.405685 -111.218676 133 2027ft 0kts
23-Sep-20 14:28 32.405685 -111.218676 133 2027ft 0kts
23-Sep-20 14:29 32.405685 -111.218676 133 2027ft 0kts
23-Sep-20 14:30 32.405684 -111.218676 133 2027ft 0kts
23-Sep-20 14:31 32.405684 -111.218676 133 2027ft 0kts
23-Sep-20 14:32 32.405684 -111.218676 133 2027ft 0kts
23-Sep-20 14:33 32.405684 -111.218676 133 2027ft 0kts
23-Sep-20 14:34 32.405684 -111.218676 133 2027ft 0kts
23-Sep-20 14:35 32.407036 -111.216978 13 2030ft 10kts
23-Sep-20 14:37 32.405714 -111.214230 134 2032ft 22kts
23-Sep-20 14:38 32.403610 -111.211305 52 2033ft 0kts
23-Sep-20 14:39 32.410130 -111.217098 318 2377ft 76kts
23-Sep-20 14:40 32.435255 -111.242944 315 3296ft 153kts
23-Sep-20 14:41 32.464583 -111.283121 309 4065ft 166kts
23-Sep-20 14:42 32.493721 -111.326116 310 4787ft 167kts
23-Sep-20 14:43 32.522757 -111.368987 310 5500ft 166kts
23-Sep-20 14:44 32.551744 -111.411931 310 6191ft 166kts
23-Sep-20 14:45 32.581574 -111.455852 310 6491ft 178kts
23-Sep-20 14:46 32.613017 -111.502648 310 6475ft 182kts
23-Sep-20 14:47 32.644749 -111.549655 310 6471ft 182kts
23-Sep-20 14:48 32.676233 -111.596458 310 6470ft 181kts
23-Sep-20 14:49 32.707900 -111.643446 310 6465ft 183kts
23-Sep-20 14:50 32.739263 -111.690339 310 6517ft 182kts
23-Sep-20 14:51 32.770881 -111.737421 310 6507ft 182kts
23-Sep-20 14:52 32.802457 -111.784537 310 6502ft 182kts
23-Sep-20 14:52 32.828697 -111.823661 310 6497ft 181kts
23-Sep-20 14:54 32.865213 -111.878336 310 6506ft 180kts
23-Sep-20 14:55 32.890767 -111.929196 280 6499ft 183kts
23-Sep-20 14:55 32.892118 -111.979782 278 6508ft 184kts
23-Sep-20 14:56 32.897987 -112.040483 278 6503ft 185kts
23-Sep-20 14:57 32.903703 -112.101410 277 6507ft 185kts
23-Sep-20 14:58 32.909366 -112.162669 278 6475ft 186kts
23-Sep-20 14:59 32.915117 -112.223942 278 6464ft 186kts
23-Sep-20 15:00 32.920804 -112.285399 278 6449ft 185kts
23-Sep-20 15:01 32.926426 -112.346504 277 6438ft 185kts
23-Sep-20 15:02 32.932072 -112.407794 277 6436ft 186kts
23-Sep-20 15:03 32.937790 -112.469150 277 6424ft 186kts
23-Sep-20 15:04 32.943248 -112.530521 277 6424ft 186kts
23-Sep-20 15:05 32.948739 -112.591956 277 6414ft 186kts
23-Sep-20 15:06 32.954418 -112.653393 284 6416ft 186kts
23-Sep-20 15:07 32.994708 -112.680789 10 6403ft 185kts
23-Sep-20 15:08 33.045527 -112.676552 358 6400ft 183kts
23-Sep-20 15:09 33.096593 -112.678050 359 6396ft 184kts
23-Sep-20 15:10 33.147155 -112.679354 359 6522ft 182kts
23-Sep-20 15:11 33.198126 -112.680624 359 6428ft 188kts
23-Sep-20 15:12 33.249225 -112.681926 358 5749ft 154kts
23-Sep-20 15:13 33.285504 -112.683243 358 5097ft 123kts
23-Sep-20 15:14 33.319594 -112.686551 343 4390ft 128kts
23-Sep-20 15:15 33.351287 -112.693445 354 3205ft 102kts
23-Sep-20 15:16 33.379130 -112.695566 354 2554ft 98kts
23-Sep-20 15:17 33.407637 -112.695942 356 2068ft 106kts
23-Sep-20 15:18 33.437090 -112.696149 0 1932ft 106kts
23-Sep-20 15:19 33.443516 -112.685104 184 1515ft 82kts
23-Sep-20 15:20 33.426965 -112.686058 174 1024ft 14kts
23-Sep-20 15:21 33.425378 -112.684792 183 1020ft 20kts
23-Sep-20 15:22 33.420901 -112.684917 135 1010ft 3kts
23-Sep-20 15:23 33.421355 -112.683586 274 1013ft 0kts
23-Sep-20 15:24 33.421355 -112.683585 274 1013ft 0kts
23-Sep-20 15:25 33.421355 -112.683585 274 1013ft 0kts

Navigation Log

Ident Type
Flight plan parsing failed, navigation log unavailable